Dandong, China
Current Conditions -  °F | °C
As of 10:00 AM on Sunday 23 Nov 2014 (Local Time) from ZYTX Reporting Station
Clear Clear  
Wind Chill: 40°   Ceiling: Unl
Heat Index: 43°   Visibility: 5mi
Dew Point: 19°   Wind: 4mph
Humidity: 39%   Direction: 180°S
Pressure: 30.24"   Gusts: NA
Location:  40.13°N, 124.4°E
Report Text: ZYTX 230200Z 18002MPS 130V210 8000 NSC 06/M07 Q1024 NOSIG
Loading
Personal Weather Stations






























Interactive Weather Map New forecast layout! Learn more

10-Day Weather Forecast

Advertisements
Track Severe Weather on mobile